sensor_id;sensor_type;location;lat;lon;timestamp;P1;durP1;ratioP1;P2;durP2;ratioP2
9900;SDS011;4989;48.772;9.154;2022-12-11T00:01:18;8.90;;;6.50;;
9900;SDS011;4989;48.772;9.154;2022-12-11T00:06:21;8.40;;;6.30;;
9900;SDS011;4989;48.772;9.154;2022-12-11T00:11:24;8.77;;;6.03;;
9900;SDS011;4989;48.772;9.154;2022-12-11T00:16:27;7.60;;;6.00;;
9900;SDS011;4989;48.772;9.154;2022-12-11T00:21:29;7.57;;;6.10;;
9900;SDS011;4989;48.772;9.154;2022-12-11T00:26:32;10.10;;;6.37;;
9900;SDS011;4989;48.772;9.154;2022-12-11T00:31:35;8.97;;;6.07;;
9900;SDS011;4989;48.772;9.154;2022-12-11T00:36:37;7.47;;;5.37;;
9900;SDS011;4989;48.772;9.154;2022-12-11T00:41:40;8.00;;;6.00;;
9900;SDS011;4989;48.772;9.154;2022-12-11T00:46:42;9.40;;;6.13;;
9900;SDS011;4989;48.772;9.154;2022-12-11T00:51:45;6.93;;;5.43;;
9900;SDS011;4989;48.772;9.154;2022-12-11T00:56:47;8.93;;;6.20;;
9900;SDS011;4989;48.772;9.154;2022-12-11T01:01:51;7.97;;;5.47;;
9900;SDS011;4989;48.772;9.154;2022-12-11T01:06:53;9.57;;;6.53;;
9900;SDS011;4989;48.772;9.154;2022-12-11T01:11:55;9.70;;;6.50;;
9900;SDS011;4989;48.772;9.154;2022-12-11T01:16:58;9.23;;;6.40;;
9900;SDS011;4989;48.772;9.154;2022-12-11T01:22:00;9.87;;;6.50;;
9900;SDS011;4989;48.772;9.154;2022-12-11T01:27:03;7.53;;;5.83;;
9900;SDS011;4989;48.772;9.154;2022-12-11T01:32:05;7.63;;;5.80;;
9900;SDS011;4989;48.772;9.154;2022-12-11T01:37:08;8.87;;;6.60;;
9900;SDS011;4989;48.772;9.154;2022-12-11T01:42:14;8.23;;;6.50;;
9900;SDS011;4989;48.772;9.154;2022-12-11T01:47:19;9.00;;;6.50;;
9900;SDS011;4989;48.772;9.154;2022-12-11T01:52:21;7.57;;;5.87;;
9900;SDS011;4989;48.772;9.154;2022-12-11T01:57:24;10.73;;;6.60;;
9900;SDS011;4989;48.772;9.154;2022-12-11T02:02:27;7.20;;;5.67;;
9900;SDS011;4989;48.772;9.154;2022-12-11T02:07:35;7.87;;;6.07;;
9900;SDS011;4989;48.772;9.154;2022-12-11T02:23:16;8.13;;;5.57;;
9900;SDS011;4989;48.772;9.154;2022-12-11T02:33:43;6.07;;;4.47;;
9900;SDS011;4989;48.772;9.154;2022-12-11T02:38:58;6.07;;;4.53;;
9900;SDS011;4989;48.772;9.154;2022-12-11T02:44:03;6.27;;;4.90;;
9900;SDS011;4989;48.772;9.154;2022-12-11T02:49:07;6.97;;;5.40;;
9900;SDS011;4989;48.772;9.154;2022-12-11T02:54:17;7.07;;;5.33;;
9900;SDS011;4989;48.772;9.154;2022-12-11T02:59:27;6.27;;;5.10;;
9900;SDS011;4989;48.772;9.154;2022-12-11T03:04:37;8.90;;;6.97;;
9900;SDS011;4989;48.772;9.154;2022-12-11T03:09:41;7.33;;;5.10;;
9900;SDS011;4989;48.772;9.154;2022-12-11T03:14:45;8.47;;;5.90;;
9900;SDS011;4989;48.772;9.154;2022-12-11T03:19:54;7.53;;;5.33;;
9900;SDS011;4989;48.772;9.154;2022-12-11T03:25:13;6.47;;;5.27;;
9900;SDS011;4989;48.772;9.154;2022-12-11T03:30:20;7.27;;;5.40;;
9900;SDS011;4989;48.772;9.154;2022-12-11T03:35:25;9.27;;;6.33;;
9900;SDS011;4989;48.772;9.154;2022-12-11T03:40:40;8.33;;;6.00;;
9900;SDS011;4989;48.772;9.154;2022-12-11T03:45:46;8.40;;;5.23;;
9900;SDS011;4989;48.772;9.154;2022-12-11T03:50:51;7.67;;;5.80;;
9900;SDS011;4989;48.772;9.154;2022-12-11T03:55:54;7.47;;;5.77;;
9900;SDS011;4989;48.772;9.154;2022-12-11T04:00:59;7.13;;;5.63;;
9900;SDS011;4989;48.772;9.154;2022-12-11T04:06:01;8.27;;;5.67;;
9900;SDS011;4989;48.772;9.154;2022-12-11T04:11:04;7.53;;;5.07;;
9900;SDS011;4989;48.772;9.154;2022-12-11T04:16:25;8.00;;;5.17;;
9900;SDS011;4989;48.772;9.154;2022-12-11T04:21:28;8.33;;;5.40;;
9900;SDS011;4989;48.772;9.154;2022-12-11T04:26:49;6.50;;;4.90;;
9900;SDS011;4989;48.772;9.154;2022-12-11T04:31:51;7.90;;;5.00;;
9900;SDS011;4989;48.772;9.154;2022-12-11T04:36:54;9.30;;;5.57;;
9900;SDS011;4989;48.772;9.154;2022-12-11T04:41:56;7.53;;;5.37;;
9900;SDS011;4989;48.772;9.154;2022-12-11T04:46:59;10.10;;;5.83;;
9900;SDS011;4989;48.772;9.154;2022-12-11T04:52:01;6.67;;;5.07;;
9900;SDS011;4989;48.772;9.154;2022-12-11T04:57:04;9.23;;;5.90;;
9900;SDS011;4989;48.772;9.154;2022-12-11T05:02:07;8.57;;;5.03;;
9900;SDS011;4989;48.772;9.154;2022-12-11T05:07:10;7.57;;;5.33;;
9900;SDS011;4989;48.772;9.154;2022-12-11T05:12:12;8.13;;;5.07;;
9900;SDS011;4989;48.772;9.154;2022-12-11T05:17:15;7.27;;;4.97;;
9900;SDS011;4989;48.772;9.154;2022-12-11T05:22:17;8.50;;;5.60;;
9900;SDS011;4989;48.772;9.154;2022-12-11T05:27:20;9.40;;;5.40;;
9900;SDS011;4989;48.772;9.154;2022-12-11T05:32:22;9.53;;;5.67;;
9900;SDS011;4989;48.772;9.154;2022-12-11T05:37:25;7.50;;;5.20;;
9900;SDS011;4989;48.772;9.154;2022-12-11T05:42:27;7.00;;;5.00;;
9900;SDS011;4989;48.772;9.154;2022-12-11T05:47:30;7.23;;;5.03;;
9900;SDS011;4989;48.772;9.154;2022-12-11T05:52:32;8.17;;;5.33;;
9900;SDS011;4989;48.772;9.154;2022-12-11T05:57:35;7.37;;;4.90;;
9900;SDS011;4989;48.772;9.154;2022-12-11T06:02:38;9.30;;;5.67;;
9900;SDS011;4989;48.772;9.154;2022-12-11T06:07:41;7.60;;;5.07;;
9900;SDS011;4989;48.772;9.154;2022-12-11T06:12:43;9.33;;;5.93;;
9900;SDS011;4989;48.772;9.154;2022-12-11T06:17:46;10.27;;;6.57;;
9900;SDS011;4989;48.772;9.154;2022-12-11T06:22:51;8.13;;;5.37;;
9900;SDS011;4989;48.772;9.154;2022-12-11T06:27:54;8.90;;;6.23;;
9900;SDS011;4989;48.772;9.154;2022-12-11T06:32:57;9.40;;;6.43;;
9900;SDS011;4989;48.772;9.154;2022-12-11T06:37:59;8.20;;;6.40;;
9900;SDS011;4989;48.772;9.154;2022-12-11T06:43:02;7.57;;;5.63;;
9900;SDS011;4989;48.772;9.154;2022-12-11T06:48:05;8.97;;;5.43;;
9900;SDS011;4989;48.772;9.154;2022-12-11T06:53:08;10.13;;;6.13;;
9900;SDS011;4989;48.772;9.154;2022-12-11T06:58:12;8.93;;;6.17;;
9900;SDS011;4989;48.772;9.154;2022-12-11T07:03:15;10.33;;;6.17;;
9900;SDS011;4989;48.772;9.154;2022-12-11T07:08:18;9.63;;;6.23;;
9900;SDS011;4989;48.772;9.154;2022-12-11T07:13:20;10.57;;;6.83;;
9900;SDS011;4989;48.772;9.154;2022-12-11T07:18:22;8.57;;;6.60;;
9900;SDS011;4989;48.772;9.154;2022-12-11T07:23:26;8.97;;;6.20;;
9900;SDS011;4989;48.772;9.154;2022-12-11T07:28:29;10.33;;;6.67;;
9900;SDS011;4989;48.772;9.154;2022-12-11T07:33:31;10.30;;;6.17;;
9900;SDS011;4989;48.772;9.154;2022-12-11T07:38:35;10.03;;;6.13;;
9900;SDS011;4989;48.772;9.154;2022-12-11T07:43:37;8.23;;;5.90;;
9900;SDS011;4989;48.772;9.154;2022-12-11T07:48:41;8.60;;;5.73;;
9900;SDS011;4989;48.772;9.154;2022-12-11T07:53:48;8.37;;;6.03;;
9900;SDS011;4989;48.772;9.154;2022-12-11T07:58:51;8.37;;;5.33;;
9900;SDS011;4989;48.772;9.154;2022-12-11T08:03:54;8.30;;;5.93;;
9900;SDS011;4989;48.772;9.154;2022-12-11T08:08:57;10.53;;;6.23;;
9900;SDS011;4989;48.772;9.154;2022-12-11T08:14:01;8.10;;;5.93;;
9900;SDS011;4989;48.772;9.154;2022-12-11T08:19:06;9.30;;;5.77;;
9900;SDS011;4989;48.772;9.154;2022-12-11T08:24:09;10.57;;;6.50;;
9900;SDS011;4989;48.772;9.154;2022-12-11T08:29:12;11.03;;;6.83;;
9900;SDS011;4989;48.772;9.154;2022-12-11T08:34:15;9.63;;;6.37;;
9900;SDS011;4989;48.772;9.154;2022-12-11T08:39:17;11.73;;;6.63;;
9900;SDS011;4989;48.772;9.154;2022-12-11T08:44:20;8.63;;;6.50;;
9900;SDS011;4989;48.772;9.154;2022-12-11T08:49:25;8.47;;;5.50;;
9900;SDS011;4989;48.772;9.154;2022-12-11T08:54:35;8.43;;;5.70;;
9900;SDS011;4989;48.772;9.154;2022-12-11T08:59:38;10.67;;;6.03;;
9900;SDS011;4989;48.772;9.154;2022-12-11T09:04:41;10.73;;;7.37;;
9900;SDS011;4989;48.772;9.154;2022-12-11T09:09:43;11.13;;;6.90;;
9900;SDS011;4989;48.772;9.154;2022-12-11T09:14:46;10.67;;;7.27;;
9900;SDS011;4989;48.772;9.154;2022-12-11T09:19:48;10.20;;;6.63;;
9900;SDS011;4989;48.772;9.154;2022-12-11T09:24:50;10.47;;;6.63;;
9900;SDS011;4989;48.772;9.154;2022-12-11T09:29:53;9.57;;;6.53;;
9900;SDS011;4989;48.772;9.154;2022-12-11T09:34:55;11.83;;;7.00;;
9900;SDS011;4989;48.772;9.154;2022-12-11T09:39:58;8.80;;;6.10;;
9900;SDS011;4989;48.772;9.154;2022-12-11T09:45:09;8.30;;;5.43;;
9900;SDS011;4989;48.772;9.154;2022-12-11T09:50:17;8.03;;;6.13;;
9900;SDS011;4989;48.772;9.154;2022-12-11T09:55:24;8.13;;;5.57;;
9900;SDS011;4989;48.772;9.154;2022-12-11T10:00:36;7.70;;;5.40;;
9900;SDS011;4989;48.772;9.154;2022-12-11T10:11:21;8.60;;;6.10;;
9900;SDS011;4989;48.772;9.154;2022-12-11T10:16:41;8.90;;;5.57;;
9900;SDS011;4989;48.772;9.154;2022-12-11T10:21:51;8.80;;;5.90;;
9900;SDS011;4989;48.772;9.154;2022-12-11T10:26:55;8.50;;;5.30;;
9900;SDS011;4989;48.772;9.154;2022-12-11T10:32:02;11.87;;;6.33;;
9900;SDS011;4989;48.772;9.154;2022-12-11T10:37:12;8.80;;;5.77;;
9900;SDS011;4989;48.772;9.154;2022-12-11T10:42:17;9.00;;;6.00;;
9900;SDS011;4989;48.772;9.154;2022-12-11T10:47:22;9.20;;;5.93;;
9900;SDS011;4989;48.772;9.154;2022-12-11T10:52:25;8.83;;;5.70;;
9900;SDS011;4989;48.772;9.154;2022-12-11T10:57:35;6.93;;;5.23;;
9900;SDS011;4989;48.772;9.154;2022-12-11T11:02:39;12.53;;;6.87;;
9900;SDS011;4989;48.772;9.154;2022-12-11T11:07:45;13.20;;;7.93;;
9900;SDS011;4989;48.772;9.154;2022-12-11T11:12:49;10.77;;;6.63;;
9900;SDS011;4989;48.772;9.154;2022-12-11T11:18:02;9.30;;;6.03;;
9900;SDS011;4989;48.772;9.154;2022-12-11T11:23:13;9.47;;;6.43;;
9900;SDS011;4989;48.772;9.154;2022-12-11T11:28:26;9.67;;;5.87;;
9900;SDS011;4989;48.772;9.154;2022-12-11T11:33:54;8.23;;;6.07;;
9900;SDS011;4989;48.772;9.154;2022-12-11T11:39:04;12.10;;;7.50;;
9900;SDS011;4989;48.772;9.154;2022-12-11T11:44:14;11.33;;;7.70;;
9900;SDS011;4989;48.772;9.154;2022-12-11T12:00:23;11.40;;;7.67;;
9900;SDS011;4989;48.772;9.154;2022-12-11T12:05:40;12.40;;;8.27;;
9900;SDS011;4989;48.772;9.154;2022-12-11T12:16:58;10.80;;;7.40;;
9900;SDS011;4989;48.772;9.154;2022-12-11T12:22:12;10.77;;;7.67;;
9900;SDS011;4989;48.772;9.154;2022-12-11T12:27:20;10.63;;;7.30;;
9900;SDS011;4989;48.772;9.154;2022-12-11T12:33:14;11.00;;;7.60;;
9900;SDS011;4989;48.772;9.154;2022-12-11T12:48:54;12.37;;;8.27;;
9900;SDS011;4989;48.772;9.154;2022-12-11T12:54:00;13.53;;;8.23;;
9900;SDS011;4989;48.772;9.154;2022-12-11T12:59:22;10.97;;;7.33;;
9900;SDS011;4989;48.772;9.154;2022-12-11T13:04:40;11.87;;;8.27;;
9900;SDS011;4989;48.772;9.154;2022-12-11T13:10:04;12.10;;;8.33;;
9900;SDS011;4989;48.772;9.154;2022-12-11T13:20:45;11.30;;;7.90;;
9900;SDS011;4989;48.772;9.154;2022-12-11T13:25:52;11.43;;;8.13;;
9900;SDS011;4989;48.772;9.154;2022-12-11T13:41:18;14.47;;;8.43;;
9900;SDS011;4989;48.772;9.154;2022-12-11T13:46:23;11.13;;;8.00;;
9900;SDS011;4989;48.772;9.154;2022-12-11T13:51:30;12.27;;;8.47;;
9900;SDS011;4989;48.772;9.154;2022-12-11T13:56:35;11.97;;;8.60;;
9900;SDS011;4989;48.772;9.154;2022-12-11T14:01:38;16.40;;;9.57;;
9900;SDS011;4989;48.772;9.154;2022-12-11T14:06:41;11.13;;;8.20;;
9900;SDS011;4989;48.772;9.154;2022-12-11T14:11:44;11.20;;;8.27;;
9900;SDS011;4989;48.772;9.154;2022-12-11T14:16:55;13.80;;;8.67;;
9900;SDS011;4989;48.772;9.154;2022-12-11T14:22:02;18.40;;;9.90;;
9900;SDS011;4989;48.772;9.154;2022-12-11T14:27:11;13.70;;;9.30;;
9900;SDS011;4989;48.772;9.154;2022-12-11T14:32:31;14.23;;;9.27;;
9900;SDS011;4989;48.772;9.154;2022-12-11T14:37:37;14.73;;;8.90;;
9900;SDS011;4989;48.772;9.154;2022-12-11T14:42:45;13.93;;;8.73;;
9900;SDS011;4989;48.772;9.154;2022-12-11T14:48:01;16.07;;;10.17;;
9900;SDS011;4989;48.772;9.154;2022-12-11T14:53:18;14.80;;;8.93;;
9900;SDS011;4989;48.772;9.154;2022-12-11T14:58:25;15.90;;;9.80;;
9900;SDS011;4989;48.772;9.154;2022-12-11T15:03:32;14.13;;;8.73;;
9900;SDS011;4989;48.772;9.154;2022-12-11T15:08:37;13.50;;;8.60;;
9900;SDS011;4989;48.772;9.154;2022-12-11T15:13:55;11.77;;;7.73;;
9900;SDS011;4989;48.772;9.154;2022-12-11T15:19:00;14.27;;;8.83;;
9900;SDS011;4989;48.772;9.154;2022-12-11T15:24:03;12.53;;;8.57;;
9900;SDS011;4989;48.772;9.154;2022-12-11T15:39:51;13.47;;;9.17;;
9900;SDS011;4989;48.772;9.154;2022-12-11T15:44:54;14.33;;;9.17;;
9900;SDS011;4989;48.772;9.154;2022-12-11T15:49:58;15.50;;;9.53;;
9900;SDS011;4989;48.772;9.154;2022-12-11T15:55:20;13.80;;;8.90;;
9900;SDS011;4989;48.772;9.154;2022-12-11T16:00:24;16.03;;;9.13;;
9900;SDS011;4989;48.772;9.154;2022-12-11T16:05:30;14.37;;;9.60;;
9900;SDS011;4989;48.772;9.154;2022-12-11T16:10:32;14.77;;;9.03;;
9900;SDS011;4989;48.772;9.154;2022-12-11T16:15:36;13.90;;;8.90;;
9900;SDS011;4989;48.772;9.154;2022-12-11T16:20:43;16.43;;;10.03;;
9900;SDS011;4989;48.772;9.154;2022-12-11T16:25:47;17.07;;;10.40;;
9900;SDS011;4989;48.772;9.154;2022-12-11T16:30:50;15.40;;;9.63;;
9900;SDS011;4989;48.772;9.154;2022-12-11T16:35:52;17.67;;;9.87;;
9900;SDS011;4989;48.772;9.154;2022-12-11T16:40:58;16.57;;;10.17;;
9900;SDS011;4989;48.772;9.154;2022-12-11T16:46:01;15.93;;;10.50;;
9900;SDS011;4989;48.772;9.154;2022-12-11T16:51:04;18.63;;;11.10;;
9900;SDS011;4989;48.772;9.154;2022-12-11T16:56:07;17.53;;;11.10;;
9900;SDS011;4989;48.772;9.154;2022-12-11T17:01:10;20.67;;;11.47;;
9900;SDS011;4989;48.772;9.154;2022-12-11T17:06:14;20.13;;;11.07;;
9900;SDS011;4989;48.772;9.154;2022-12-11T17:11:18;16.13;;;10.27;;
9900;SDS011;4989;48.772;9.154;2022-12-11T17:16:22;16.87;;;10.97;;
9900;SDS011;4989;48.772;9.154;2022-12-11T17:21:29;18.90;;;11.40;;
9900;SDS011;4989;48.772;9.154;2022-12-11T17:26:31;25.40;;;15.63;;
9900;SDS011;4989;48.772;9.154;2022-12-11T17:31:35;20.03;;;12.50;;
9900;SDS011;4989;48.772;9.154;2022-12-11T17:36:38;20.97;;;11.83;;
9900;SDS011;4989;48.772;9.154;2022-12-11T17:41:41;19.40;;;11.00;;
9900;SDS011;4989;48.772;9.154;2022-12-11T17:46:43;21.10;;;12.93;;
9900;SDS011;4989;48.772;9.154;2022-12-11T17:51:46;23.00;;;12.47;;
9900;SDS011;4989;48.772;9.154;2022-12-11T17:56:49;19.40;;;11.40;;
9900;SDS011;4989;48.772;9.154;2022-12-11T18:01:51;19.33;;;11.83;;
9900;SDS011;4989;48.772;9.154;2022-12-11T18:06:54;21.10;;;11.73;;
9900;SDS011;4989;48.772;9.154;2022-12-11T18:11:57;16.57;;;11.17;;
9900;SDS011;4989;48.772;9.154;2022-12-11T18:16:59;18.03;;;12.37;;
9900;SDS011;4989;48.772;9.154;2022-12-11T18:22:02;20.13;;;12.23;;
9900;SDS011;4989;48.772;9.154;2022-12-11T18:27:05;22.53;;;12.37;;
9900;SDS011;4989;48.772;9.154;2022-12-11T18:32:11;20.13;;;11.77;;
9900;SDS011;4989;48.772;9.154;2022-12-11T18:37:13;18.20;;;11.30;;
9900;SDS011;4989;48.772;9.154;2022-12-11T18:42:16;20.43;;;12.27;;
9900;SDS011;4989;48.772;9.154;2022-12-11T18:47:34;17.23;;;11.27;;
9900;SDS011;4989;48.772;9.154;2022-12-11T18:52:37;19.77;;;12.27;;
9900;SDS011;4989;48.772;9.154;2022-12-11T18:57:40;17.30;;;11.60;;
9900;SDS011;4989;48.772;9.154;2022-12-11T19:02:43;17.73;;;11.50;;
9900;SDS011;4989;48.772;9.154;2022-12-11T19:07:45;21.67;;;11.90;;
9900;SDS011;4989;48.772;9.154;2022-12-11T19:12:48;18.40;;;11.37;;
9900;SDS011;4989;48.772;9.154;2022-12-11T19:17:50;17.70;;;10.40;;
9900;SDS011;4989;48.772;9.154;2022-12-11T19:22:53;18.13;;;11.17;;
9900;SDS011;4989;48.772;9.154;2022-12-11T19:27:55;17.97;;;10.87;;
9900;SDS011;4989;48.772;9.154;2022-12-11T19:32:58;17.73;;;11.90;;
9900;SDS011;4989;48.772;9.154;2022-12-11T19:38:00;19.73;;;12.10;;
9900;SDS011;4989;48.772;9.154;2022-12-11T19:43:03;17.33;;;10.90;;
9900;SDS011;4989;48.772;9.154;2022-12-11T19:48:06;15.90;;;11.23;;
9900;SDS011;4989;48.772;9.154;2022-12-11T19:53:09;18.43;;;10.60;;
9900;SDS011;4989;48.772;9.154;2022-12-11T19:58:11;17.57;;;10.70;;
9900;SDS011;4989;48.772;9.154;2022-12-11T20:03:14;21.50;;;11.33;;
9900;SDS011;4989;48.772;9.154;2022-12-11T20:08:16;17.27;;;10.97;;
9900;SDS011;4989;48.772;9.154;2022-12-11T20:13:39;21.97;;;12.73;;
9900;SDS011;4989;48.772;9.154;2022-12-11T20:18:41;21.00;;;12.23;;
9900;SDS011;4989;48.772;9.154;2022-12-11T20:23:44;16.00;;;11.03;;
9900;SDS011;4989;48.772;9.154;2022-12-11T20:28:48;19.17;;;11.43;;
9900;SDS011;4989;48.772;9.154;2022-12-11T20:33:52;16.83;;;10.93;;
9900;SDS011;4989;48.772;9.154;2022-12-11T20:38:56;20.00;;;12.17;;
9900;SDS011;4989;48.772;9.154;2022-12-11T20:43:58;20.70;;;11.83;;
9900;SDS011;4989;48.772;9.154;2022-12-11T20:49:01;20.33;;;11.93;;
9900;SDS011;4989;48.772;9.154;2022-12-11T20:54:04;19.70;;;12.17;;
9900;SDS011;4989;48.772;9.154;2022-12-11T20:59:07;16.77;;;10.97;;
9900;SDS011;4989;48.772;9.154;2022-12-11T21:04:10;20.83;;;13.37;;
9900;SDS011;4989;48.772;9.154;2022-12-11T21:09:14;20.87;;;12.07;;
9900;SDS011;4989;48.772;9.154;2022-12-11T21:14:19;18.03;;;11.80;;
9900;SDS011;4989;48.772;9.154;2022-12-11T21:19:23;20.20;;;11.97;;
9900;SDS011;4989;48.772;9.154;2022-12-11T21:24:26;21.00;;;12.40;;
9900;SDS011;4989;48.772;9.154;2022-12-11T21:29:30;21.47;;;12.60;;
9900;SDS011;4989;48.772;9.154;2022-12-11T21:34:32;19.53;;;12.17;;
9900;SDS011;4989;48.772;9.154;2022-12-11T21:39:36;17.07;;;11.17;;
9900;SDS011;4989;48.772;9.154;2022-12-11T21:44:39;17.07;;;10.80;;
9900;SDS011;4989;48.772;9.154;2022-12-11T21:50:02;17.63;;;11.60;;
9900;SDS011;4989;48.772;9.154;2022-12-11T21:55:05;17.63;;;11.33;;
9900;SDS011;4989;48.772;9.154;2022-12-11T22:00:09;18.70;;;11.77;;
9900;SDS011;4989;48.772;9.154;2022-12-11T22:05:15;16.43;;;9.57;;
9900;SDS011;4989;48.772;9.154;2022-12-11T22:10:17;17.50;;;10.97;;
9900;SDS011;4989;48.772;9.154;2022-12-11T22:15:20;19.13;;;11.53;;
9900;SDS011;4989;48.772;9.154;2022-12-11T22:20:22;15.80;;;10.97;;
9900;SDS011;4989;48.772;9.154;2022-12-11T22:25:25;18.13;;;10.83;;
9900;SDS011;4989;48.772;9.154;2022-12-11T22:30:29;15.90;;;10.27;;
9900;SDS011;4989;48.772;9.154;2022-12-11T22:35:32;16.90;;;9.77;;
9900;SDS011;4989;48.772;9.154;2022-12-11T22:40:37;16.00;;;9.80;;
9900;SDS011;4989;48.772;9.154;2022-12-11T22:45:41;16.90;;;10.33;;
9900;SDS011;4989;48.772;9.154;2022-12-11T22:50:44;15.93;;;9.67;;
9900;SDS011;4989;48.772;9.154;2022-12-11T22:55:46;15.00;;;9.50;;
9900;SDS011;4989;48.772;9.154;2022-12-11T23:00:49;18.07;;;10.53;;
9900;SDS011;4989;48.772;9.154;2022-12-11T23:05:51;17.43;;;10.17;;
9900;SDS011;4989;48.772;9.154;2022-12-11T23:10:54;16.37;;;10.57;;
9900;SDS011;4989;48.772;9.154;2022-12-11T23:15:57;18.90;;;10.93;;
9900;SDS011;4989;48.772;9.154;2022-12-11T23:20:59;15.83;;;9.80;;
9900;SDS011;4989;48.772;9.154;2022-12-11T23:26:03;18.37;;;10.00;;
9900;SDS011;4989;48.772;9.154;2022-12-11T23:31:07;17.67;;;9.43;;
9900;SDS011;4989;48.772;9.154;2022-12-11T23:36:10;14.63;;;9.53;;
9900;SDS011;4989;48.772;9.154;2022-12-11T23:41:13;16.40;;;9.57;;
9900;SDS011;4989;48.772;9.154;2022-12-11T23:46:18;14.17;;;8.60;;
9900;SDS011;4989;48.772;9.154;2022-12-11T23:51:24;13.57;;;8.37;;
9900;SDS011;4989;48.772;9.154;2022-12-11T23:56:27;13.83;;;8.70;;
